sensor_id;sensor_type;location;lat;lon;timestamp;P1;durP1;ratioP1;P2;durP2;ratioP2
6386;SDS011;3226;42.162;24.756;2023-02-11T00:01:32;5.97;;;5.77;;
6386;SDS011;3226;42.162;24.756;2023-02-11T00:04:01;5.20;;;5.00;;
6386;SDS011;3226;42.162;24.756;2023-02-11T00:06:31;5.13;;;4.93;;
6386;SDS011;3226;42.162;24.756;2023-02-11T00:09:02;5.60;;;5.40;;
6386;SDS011;3226;42.162;24.756;2023-02-11T00:11:31;5.63;;;5.43;;
6386;SDS011;3226;42.162;24.756;2023-02-11T00:14:01;5.23;;;5.03;;
6386;SDS011;3226;42.162;24.756;2023-02-11T00:16:33;5.17;;;4.97;;
6386;SDS011;3226;42.162;24.756;2023-02-11T00:19:01;5.43;;;5.23;;
6386;SDS011;3226;42.162;24.756;2023-02-11T00:21:31;6.00;;;5.80;;
6386;SDS011;3226;42.162;24.756;2023-02-11T00:23:59;5.67;;;5.47;;
6386;SDS011;3226;42.162;24.756;2023-02-11T00:26:29;5.20;;;5.00;;
6386;SDS011;3226;42.162;24.756;2023-02-11T00:28:59;5.60;;;5.40;;
6386;SDS011;3226;42.162;24.756;2023-02-11T00:31:27;5.77;;;5.57;;
6386;SDS011;3226;42.162;24.756;2023-02-11T00:33:56;6.80;;;6.50;;
6386;SDS011;3226;42.162;24.756;2023-02-11T00:36:25;5.70;;;5.50;;
6386;SDS011;3226;42.162;24.756;2023-02-11T00:38:54;6.57;;;6.27;;
6386;SDS011;3226;42.162;24.756;2023-02-11T00:41:24;5.97;;;5.77;;
6386;SDS011;3226;42.162;24.756;2023-02-11T00:43:53;5.63;;;5.43;;
6386;SDS011;3226;42.162;24.756;2023-02-11T00:46:21;5.63;;;5.43;;
6386;SDS011;3226;42.162;24.756;2023-02-11T00:48:50;5.13;;;4.93;;
6386;SDS011;3226;42.162;24.756;2023-02-11T00:51:20;6.10;;;5.90;;
6386;SDS011;3226;42.162;24.756;2023-02-11T00:53:48;5.80;;;5.60;;
6386;SDS011;3226;42.162;24.756;2023-02-11T00:56:16;5.63;;;5.43;;
6386;SDS011;3226;42.162;24.756;2023-02-11T00:58:44;6.00;;;5.80;;
6386;SDS011;3226;42.162;24.756;2023-02-11T01:01:13;5.87;;;5.67;;
6386;SDS011;3226;42.162;24.756;2023-02-11T01:03:41;5.47;;;5.27;;
6386;SDS011;3226;42.162;24.756;2023-02-11T01:06:09;5.03;;;4.83;;
6386;SDS011;3226;42.162;24.756;2023-02-11T01:08:38;5.80;;;5.60;;
6386;SDS011;3226;42.162;24.756;2023-02-11T01:11:07;6.57;;;6.27;;
6386;SDS011;3226;42.162;24.756;2023-02-11T01:13:39;5.87;;;5.67;;
6386;SDS011;3226;42.162;24.756;2023-02-11T01:16:07;6.70;;;6.40;;
6386;SDS011;3226;42.162;24.756;2023-02-11T01:18:37;6.40;;;6.13;;
6386;SDS011;3226;42.162;24.756;2023-02-11T01:21:07;6.87;;;6.57;;
6386;SDS011;3226;42.162;24.756;2023-02-11T01:23:35;5.97;;;5.77;;
6386;SDS011;3226;42.162;24.756;2023-02-11T01:26:03;6.13;;;5.93;;
6386;SDS011;3226;42.162;24.756;2023-02-11T01:28:31;6.87;;;6.57;;
6386;SDS011;3226;42.162;24.756;2023-02-11T01:31:00;7.00;;;6.70;;
6386;SDS011;3226;42.162;24.756;2023-02-11T01:33:28;6.90;;;6.60;;
6386;SDS011;3226;42.162;24.756;2023-02-11T01:36:00;7.13;;;6.83;;
6386;SDS011;3226;42.162;24.756;2023-02-11T01:38:29;6.60;;;6.30;;
6386;SDS011;3226;42.162;24.756;2023-02-11T01:40:58;6.77;;;6.47;;
6386;SDS011;3226;42.162;24.756;2023-02-11T01:43:29;6.53;;;6.23;;
6386;SDS011;3226;42.162;24.756;2023-02-11T01:46:03;6.67;;;6.37;;
6386;SDS011;3226;42.162;24.756;2023-02-11T01:48:41;6.60;;;6.30;;
6386;SDS011;3226;42.162;24.756;2023-02-11T01:51:15;6.70;;;6.40;;
6386;SDS011;3226;42.162;24.756;2023-02-11T01:53:47;6.80;;;6.50;;
6386;SDS011;3226;42.162;24.756;2023-02-11T01:56:36;6.77;;;6.47;;
6386;SDS011;3226;42.162;24.756;2023-02-11T01:59:27;6.50;;;6.20;;
6386;SDS011;3226;42.162;24.756;2023-02-11T02:02:00;6.33;;;6.10;;
6386;SDS011;3226;42.162;24.756;2023-02-11T02:04:34;6.63;;;6.33;;
6386;SDS011;3226;42.162;24.756;2023-02-11T02:07:10;6.97;;;6.67;;
6386;SDS011;3226;42.162;24.756;2023-02-11T02:09:41;5.70;;;5.50;;
6386;SDS011;3226;42.162;24.756;2023-02-11T02:12:13;6.23;;;6.03;;
6386;SDS011;3226;42.162;24.756;2023-02-11T02:14:41;6.53;;;6.23;;
6386;SDS011;3226;42.162;24.756;2023-02-11T02:17:09;6.13;;;5.93;;
6386;SDS011;3226;42.162;24.756;2023-02-11T02:20:00;6.03;;;5.83;;
6386;SDS011;3226;42.162;24.756;2023-02-11T02:25:54;6.07;;;5.87;;
6386;SDS011;3226;42.162;24.756;2023-02-11T02:28:51;5.43;;;5.23;;
6386;SDS011;3226;42.162;24.756;2023-02-11T02:31:53;5.90;;;5.70;;
6386;SDS011;3226;42.162;24.756;2023-02-11T02:34:41;6.30;;;6.07;;
6386;SDS011;3226;42.162;24.756;2023-02-11T02:37:17;5.57;;;5.37;;
6386;SDS011;3226;42.162;24.756;2023-02-11T02:39:50;6.37;;;6.10;;
6386;SDS011;3226;42.162;24.756;2023-02-11T02:42:18;5.57;;;5.37;;
6386;SDS011;3226;42.162;24.756;2023-02-11T02:44:47;5.67;;;5.47;;
6386;SDS011;3226;42.162;24.756;2023-02-11T02:47:17;5.90;;;5.70;;
6386;SDS011;3226;42.162;24.756;2023-02-11T02:49:45;5.57;;;5.37;;
6386;SDS011;3226;42.162;24.756;2023-02-11T02:52:19;5.70;;;5.50;;
6386;SDS011;3226;42.162;24.756;2023-02-11T02:58:01;5.10;;;4.90;;
6386;SDS011;3226;42.162;24.756;2023-02-11T03:00:48;6.03;;;5.83;;
6386;SDS011;3226;42.162;24.756;2023-02-11T03:03:30;5.70;;;5.50;;
6386;SDS011;3226;42.162;24.756;2023-02-11T03:06:10;5.63;;;5.43;;
6386;SDS011;3226;42.162;24.756;2023-02-11T03:08:45;5.23;;;5.03;;
6386;SDS011;3226;42.162;24.756;2023-02-11T03:11:17;6.60;;;6.30;;
6386;SDS011;3226;42.162;24.756;2023-02-11T03:13:48;6.10;;;5.90;;
6386;SDS011;3226;42.162;24.756;2023-02-11T03:16:18;5.70;;;5.50;;
6386;SDS011;3226;42.162;24.756;2023-02-11T03:18:54;6.53;;;6.23;;
6386;SDS011;3226;42.162;24.756;2023-02-11T03:21:28;6.07;;;5.87;;
6386;SDS011;3226;42.162;24.756;2023-02-11T03:24:02;5.87;;;5.67;;
6386;SDS011;3226;42.162;24.756;2023-02-11T03:26:34;5.57;;;5.37;;
6386;SDS011;3226;42.162;24.756;2023-02-11T03:29:08;5.83;;;5.63;;
6386;SDS011;3226;42.162;24.756;2023-02-11T03:31:48;6.43;;;6.17;;
6386;SDS011;3226;42.162;24.756;2023-02-11T03:34:26;5.63;;;5.43;;
6386;SDS011;3226;42.162;24.756;2023-02-11T03:36:58;5.63;;;5.43;;
6386;SDS011;3226;42.162;24.756;2023-02-11T03:39:32;5.83;;;5.63;;
6386;SDS011;3226;42.162;24.756;2023-02-11T03:42:04;5.90;;;5.70;;
6386;SDS011;3226;42.162;24.756;2023-02-11T03:44:36;5.63;;;5.43;;
6386;SDS011;3226;42.162;24.756;2023-02-11T03:47:09;5.67;;;5.47;;
6386;SDS011;3226;42.162;24.756;2023-02-11T03:49:41;5.83;;;5.63;;
6386;SDS011;3226;42.162;24.756;2023-02-11T03:52:11;6.57;;;6.27;;
6386;SDS011;3226;42.162;24.756;2023-02-11T03:54:43;6.23;;;6.03;;
6386;SDS011;3226;42.162;24.756;2023-02-11T03:57:15;5.97;;;5.77;;
6386;SDS011;3226;42.162;24.756;2023-02-11T03:59:48;5.87;;;5.67;;
6386;SDS011;3226;42.162;24.756;2023-02-11T04:02:17;6.37;;;6.10;;
6386;SDS011;3226;42.162;24.756;2023-02-11T04:04:47;5.87;;;5.67;;
6386;SDS011;3226;42.162;24.756;2023-02-11T04:07:15;5.67;;;5.47;;
6386;SDS011;3226;42.162;24.756;2023-02-11T04:09:43;5.43;;;5.23;;
6386;SDS011;3226;42.162;24.756;2023-02-11T04:12:11;4.93;;;4.73;;
6386;SDS011;3226;42.162;24.756;2023-02-11T04:14:39;5.50;;;5.30;;
6386;SDS011;3226;42.162;24.756;2023-02-11T04:17:07;5.20;;;5.00;;
6386;SDS011;3226;42.162;24.756;2023-02-11T04:19:35;5.33;;;5.13;;
6386;SDS011;3226;42.162;24.756;2023-02-11T04:22:05;5.33;;;5.13;;
6386;SDS011;3226;42.162;24.756;2023-02-11T04:24:33;5.87;;;5.67;;
6386;SDS011;3226;42.162;24.756;2023-02-11T04:27:01;5.70;;;5.50;;
6386;SDS011;3226;42.162;24.756;2023-02-11T04:29:30;5.70;;;5.50;;
6386;SDS011;3226;42.162;24.756;2023-02-11T04:31:58;5.77;;;5.57;;
6386;SDS011;3226;42.162;24.756;2023-02-11T04:34:26;6.13;;;5.93;;
6386;SDS011;3226;42.162;24.756;2023-02-11T04:36:54;5.77;;;5.57;;
6386;SDS011;3226;42.162;24.756;2023-02-11T04:39:24;5.37;;;5.17;;
6386;SDS011;3226;42.162;24.756;2023-02-11T04:41:52;5.90;;;5.70;;
6386;SDS011;3226;42.162;24.756;2023-02-11T04:44:20;6.17;;;5.97;;
6386;SDS011;3226;42.162;24.756;2023-02-11T04:46:48;5.90;;;5.70;;
6386;SDS011;3226;42.162;24.756;2023-02-11T04:49:16;5.87;;;5.67;;
6386;SDS011;3226;42.162;24.756;2023-02-11T04:51:44;6.57;;;6.27;;
6386;SDS011;3226;42.162;24.756;2023-02-11T04:54:14;5.60;;;5.40;;
6386;SDS011;3226;42.162;24.756;2023-02-11T04:56:44;6.10;;;5.90;;
6386;SDS011;3226;42.162;24.756;2023-02-11T04:59:12;5.47;;;5.27;;
6386;SDS011;3226;42.162;24.756;2023-02-11T05:01:40;5.70;;;5.50;;
6386;SDS011;3226;42.162;24.756;2023-02-11T05:04:09;5.87;;;5.67;;
6386;SDS011;3226;42.162;24.756;2023-02-11T05:06:37;6.30;;;6.07;;
6386;SDS011;3226;42.162;24.756;2023-02-11T05:09:05;5.40;;;5.20;;
6386;SDS011;3226;42.162;24.756;2023-02-11T05:11:34;5.53;;;5.33;;
6386;SDS011;3226;42.162;24.756;2023-02-11T05:14:06;6.20;;;6.00;;
6386;SDS011;3226;42.162;24.756;2023-02-11T05:16:34;5.87;;;5.67;;
6386;SDS011;3226;42.162;24.756;2023-02-11T05:19:02;5.63;;;5.43;;
6386;SDS011;3226;42.162;24.756;2023-02-11T05:21:30;5.97;;;5.77;;
6386;SDS011;3226;42.162;24.756;2023-02-11T05:23:58;6.60;;;6.30;;
6386;SDS011;3226;42.162;24.756;2023-02-11T05:26:26;6.03;;;5.83;;
6386;SDS011;3226;42.162;24.756;2023-02-11T05:28:55;6.73;;;6.43;;
6386;SDS011;3226;42.162;24.756;2023-02-11T05:31:24;6.00;;;5.80;;
6386;SDS011;3226;42.162;24.756;2023-02-11T05:33:52;5.63;;;5.43;;
6386;SDS011;3226;42.162;24.756;2023-02-11T05:36:21;5.97;;;5.77;;
6386;SDS011;3226;42.162;24.756;2023-02-11T05:38:49;5.73;;;5.53;;
6386;SDS011;3226;42.162;24.756;2023-02-11T05:41:17;6.43;;;6.13;;
6386;SDS011;3226;42.162;24.756;2023-02-11T05:43:47;5.97;;;5.77;;
6386;SDS011;3226;42.162;24.756;2023-02-11T05:46:16;6.50;;;6.20;;
6386;SDS011;3226;42.162;24.756;2023-02-11T05:48:48;5.80;;;5.60;;
6386;SDS011;3226;42.162;24.756;2023-02-11T05:51:16;6.37;;;6.10;;
6386;SDS011;3226;42.162;24.756;2023-02-11T05:53:44;5.70;;;5.50;;
6386;SDS011;3226;42.162;24.756;2023-02-11T05:56:12;6.63;;;6.33;;
6386;SDS011;3226;42.162;24.756;2023-02-11T05:58:40;5.57;;;5.37;;
6386;SDS011;3226;42.162;24.756;2023-02-11T06:01:08;6.57;;;6.30;;
6386;SDS011;3226;42.162;24.756;2023-02-11T06:03:36;6.43;;;6.13;;
6386;SDS011;3226;42.162;24.756;2023-02-11T06:06:09;6.17;;;5.97;;
6386;SDS011;3226;42.162;24.756;2023-02-11T06:08:38;5.73;;;5.53;;
6386;SDS011;3226;42.162;24.756;2023-02-11T06:11:07;6.57;;;6.28;;
6386;SDS011;3226;42.162;24.756;2023-02-11T06:13:35;7.30;;;6.90;;
6386;SDS011;3226;42.162;24.756;2023-02-11T06:16:03;5.33;;;5.13;;
6386;SDS011;3226;42.162;24.756;2023-02-11T06:18:32;5.97;;;5.77;;
6386;SDS011;3226;42.162;24.756;2023-02-11T06:21:00;5.00;;;4.80;;
6386;SDS011;3226;42.162;24.756;2023-02-11T06:23:29;5.87;;;5.67;;
6386;SDS011;3226;42.162;24.756;2023-02-11T06:26:00;5.87;;;5.67;;
6386;SDS011;3226;42.162;24.756;2023-02-11T06:28:28;5.33;;;5.13;;
6386;SDS011;3226;42.162;24.756;2023-02-11T06:30:58;5.87;;;5.67;;
6386;SDS011;3226;42.162;24.756;2023-02-11T06:33:32;5.70;;;5.50;;
6386;SDS011;3226;42.162;24.756;2023-02-11T06:36:00;5.83;;;5.63;;
6386;SDS011;3226;42.162;24.756;2023-02-11T06:38:30;5.53;;;5.33;;
6386;SDS011;3226;42.162;24.756;2023-02-11T06:40:59;5.37;;;5.17;;
6386;SDS011;3226;42.162;24.756;2023-02-11T06:43:26;5.73;;;5.53;;
6386;SDS011;3226;42.162;24.756;2023-02-11T06:45:54;5.57;;;5.37;;
6386;SDS011;3226;42.162;24.756;2023-02-11T06:48:22;5.87;;;5.67;;
6386;SDS011;3226;42.162;24.756;2023-02-11T06:50:50;5.33;;;5.13;;
6386;SDS011;3226;42.162;24.756;2023-02-11T06:53:18;5.47;;;5.27;;
6386;SDS011;3226;42.162;24.756;2023-02-11T06:55:48;5.70;;;5.50;;
6386;SDS011;3226;42.162;24.756;2023-02-11T06:58:16;5.87;;;5.67;;
6386;SDS011;3226;42.162;24.756;2023-02-11T07:00:44;6.70;;;6.40;;
6386;SDS011;3226;42.162;24.756;2023-02-11T07:03:12;5.97;;;5.77;;
6386;SDS011;3226;42.162;24.756;2023-02-11T07:05:41;5.87;;;5.67;;
6386;SDS011;3226;42.162;24.756;2023-02-11T07:08:09;5.70;;;5.50;;
6386;SDS011;3226;42.162;24.756;2023-02-11T07:10:37;5.97;;;5.77;;
6386;SDS011;3226;42.162;24.756;2023-02-11T07:13:06;5.77;;;5.57;;
6386;SDS011;3226;42.162;24.756;2023-02-11T07:15:35;5.40;;;5.20;;
6386;SDS011;3226;42.162;24.756;2023-02-11T07:18:03;5.87;;;5.67;;
6386;SDS011;3226;42.162;24.756;2023-02-11T07:20:31;5.13;;;4.93;;
6386;SDS011;3226;42.162;24.756;2023-02-11T07:22:59;5.43;;;5.23;;
6386;SDS011;3226;42.162;24.756;2023-02-11T07:25:27;6.10;;;5.90;;
6386;SDS011;3226;42.162;24.756;2023-02-11T07:27:55;5.43;;;5.23;;
6386;SDS011;3226;42.162;24.756;2023-02-11T07:30:25;6.13;;;5.93;;
6386;SDS011;3226;42.162;24.756;2023-02-11T07:32:53;6.13;;;5.93;;
6386;SDS011;3226;42.162;24.756;2023-02-11T07:35:22;6.00;;;5.80;;
6386;SDS011;3226;42.162;24.756;2023-02-11T07:37:50;6.20;;;5.90;;
6386;SDS011;3226;42.162;24.756;2023-02-11T07:40:18;5.83;;;5.63;;
6386;SDS011;3226;42.162;24.756;2023-02-11T07:42:46;5.67;;;5.47;;
6386;SDS011;3226;42.162;24.756;2023-02-11T07:45:14;6.00;;;5.80;;
6386;SDS011;3226;42.162;24.756;2023-02-11T07:47:44;6.77;;;6.47;;
6386;SDS011;3226;42.162;24.756;2023-02-11T07:50:12;5.90;;;5.70;;
6386;SDS011;3226;42.162;24.756;2023-02-11T07:52:40;5.73;;;5.53;;
6386;SDS011;3226;42.162;24.756;2023-02-11T07:55:08;6.50;;;6.20;;
6386;SDS011;3226;42.162;24.756;2023-02-11T07:57:36;6.57;;;6.27;;
6386;SDS011;3226;42.162;24.756;2023-02-11T08:00:05;6.03;;;5.83;;
6386;SDS011;3226;42.162;24.756;2023-02-11T08:02:33;6.38;;;6.10;;
6386;SDS011;3226;42.162;24.756;2023-02-11T08:05:03;5.40;;;5.20;;
6386;SDS011;3226;42.162;24.756;2023-02-11T08:07:31;6.00;;;5.80;;
6386;SDS011;3226;42.162;24.756;2023-02-11T08:09:59;5.97;;;5.77;;
6386;SDS011;3226;42.162;24.756;2023-02-11T08:12:27;6.03;;;5.83;;
6386;SDS011;3226;42.162;24.756;2023-02-11T08:14:56;5.97;;;5.77;;
6386;SDS011;3226;42.162;24.756;2023-02-11T08:17:24;6.43;;;6.13;;
6386;SDS011;3226;42.162;24.756;2023-02-11T08:19:52;6.27;;;6.03;;
6386;SDS011;3226;42.162;24.756;2023-02-11T08:22:22;6.90;;;6.60;;
6386;SDS011;3226;42.162;24.756;2023-02-11T08:24:49;7.27;;;6.97;;
6386;SDS011;3226;42.162;24.756;2023-02-11T08:27:18;6.87;;;6.57;;
6386;SDS011;3226;42.162;24.756;2023-02-11T08:29:46;6.67;;;6.37;;
6386;SDS011;3226;42.162;24.756;2023-02-11T08:32:14;6.57;;;6.27;;
6386;SDS011;3226;42.162;24.756;2023-02-11T08:34:42;6.40;;;6.13;;
6386;SDS011;3226;42.162;24.756;2023-02-11T08:37:10;6.87;;;6.57;;
6386;SDS011;3226;42.162;24.756;2023-02-11T08:39:40;6.20;;;6.00;;
6386;SDS011;3226;42.162;24.756;2023-02-11T08:42:08;6.50;;;6.20;;
6386;SDS011;3226;42.162;24.756;2023-02-11T08:44:36;6.80;;;6.50;;
6386;SDS011;3226;42.162;24.756;2023-02-11T08:47:04;6.60;;;6.30;;
6386;SDS011;3226;42.162;24.756;2023-02-11T08:49:32;6.90;;;6.60;;
6386;SDS011;3226;42.162;24.756;2023-02-11T08:52:00;6.20;;;6.00;;
6386;SDS011;3226;42.162;24.756;2023-02-11T08:54:29;6.33;;;6.07;;
6386;SDS011;3226;42.162;24.756;2023-02-11T08:56:59;5.70;;;5.50;;
6386;SDS011;3226;42.162;24.756;2023-02-11T08:59:28;6.03;;;5.83;;
6386;SDS011;3226;42.162;24.756;2023-02-11T09:01:56;6.63;;;6.33;;
6386;SDS011;3226;42.162;24.756;2023-02-11T09:04:24;6.93;;;6.63;;
6386;SDS011;3226;42.162;24.756;2023-02-11T09:06:53;6.50;;;6.20;;
6386;SDS011;3226;42.162;24.756;2023-02-11T09:09:21;6.60;;;6.30;;
6386;SDS011;3226;42.162;24.756;2023-02-11T09:11:49;5.77;;;5.57;;
6386;SDS011;3226;42.162;24.756;2023-02-11T09:14:23;5.80;;;5.60;;
6386;SDS011;3226;42.162;24.756;2023-02-11T09:16:52;6.97;;;6.67;;
6386;SDS011;3226;42.162;24.756;2023-02-11T09:19:20;6.63;;;6.33;;
6386;SDS011;3226;42.162;24.756;2023-02-11T09:21:50;6.67;;;6.37;;
6386;SDS011;3226;42.162;24.756;2023-02-11T09:24:18;6.50;;;6.20;;
6386;SDS011;3226;42.162;24.756;2023-02-11T09:26:46;6.93;;;6.63;;
6386;SDS011;3226;42.162;24.756;2023-02-11T09:29:14;7.07;;;6.77;;
6386;SDS011;3226;42.162;24.756;2023-02-11T09:31:44;6.63;;;6.33;;
6386;SDS011;3226;42.162;24.756;2023-02-11T09:34:12;7.00;;;6.70;;
6386;SDS011;3226;42.162;24.756;2023-02-11T09:36:41;7.50;;;7.20;;
6386;SDS011;3226;42.162;24.756;2023-02-11T09:39:10;6.80;;;6.50;;
6386;SDS011;3226;42.162;24.756;2023-02-11T09:42:00;6.73;;;6.43;;
6386;SDS011;3226;42.162;24.756;2023-02-11T09:44:51;6.73;;;6.43;;
6386;SDS011;3226;42.162;24.756;2023-02-11T09:47:25;7.50;;;7.20;;
6386;SDS011;3226;42.162;24.756;2023-02-11T09:49:57;5.47;;;5.27;;
6386;SDS011;3226;42.162;24.756;2023-02-11T09:52:35;6.00;;;5.80;;
6386;SDS011;3226;42.162;24.756;2023-02-11T09:55:11;6.77;;;6.47;;
6386;SDS011;3226;42.162;24.756;2023-02-11T09:57:44;7.57;;;7.27;;
6386;SDS011;3226;42.162;24.756;2023-02-11T10:00:21;7.03;;;6.73;;
6386;SDS011;3226;42.162;24.756;2023-02-11T10:03:07;7.00;;;6.70;;
6386;SDS011;3226;42.162;24.756;2023-02-11T10:06:00;6.43;;;6.13;;
6386;SDS011;3226;42.162;24.756;2023-02-11T10:08:47;6.73;;;6.43;;
6386;SDS011;3226;42.162;24.756;2023-02-11T10:11:29;6.43;;;6.13;;
6386;SDS011;3226;42.162;24.756;2023-02-11T10:14:06;6.93;;;6.63;;
6386;SDS011;3226;42.162;24.756;2023-02-11T10:16:51;8.00;;;7.70;;
6386;SDS011;3226;42.162;24.756;2023-02-11T10:22:27;6.30;;;6.00;;
6386;SDS011;3226;42.162;24.756;2023-02-11T10:24:59;7.27;;;6.97;;
6386;SDS011;3226;42.162;24.756;2023-02-11T10:27:33;6.60;;;6.30;;
6386;SDS011;3226;42.162;24.756;2023-02-11T10:30:03;6.67;;;6.37;;
6386;SDS011;3226;42.162;24.756;2023-02-11T10:32:38;6.23;;;6.03;;
6386;SDS011;3226;42.162;24.756;2023-02-11T10:35:14;7.20;;;6.90;;
6386;SDS011;3226;42.162;24.756;2023-02-11T10:37:44;6.80;;;6.50;;
6386;SDS011;3226;42.162;24.756;2023-02-11T10:40:12;7.33;;;7.03;;
6386;SDS011;3226;42.162;24.756;2023-02-11T10:42:42;7.23;;;6.93;;
6386;SDS011;3226;42.162;24.756;2023-02-11T10:45:15;8.13;;;7.83;;
6386;SDS011;3226;42.162;24.756;2023-02-11T10:47:48;7.97;;;7.67;;
6386;SDS011;3226;42.162;24.756;2023-02-11T10:50:20;8.43;;;8.10;;
6386;SDS011;3226;42.162;24.756;2023-02-11T10:52:50;7.83;;;7.53;;
6386;SDS011;3226;42.162;24.756;2023-02-11T10:55:19;6.90;;;6.60;;
6386;SDS011;3226;42.162;24.756;2023-02-11T10:57:51;7.07;;;6.77;;
6386;SDS011;3226;42.162;24.756;2023-02-11T11:00:32;7.00;;;6.70;;
6386;SDS011;3226;42.162;24.756;2023-02-11T11:03:03;6.73;;;6.43;;
6386;SDS011;3226;42.162;24.756;2023-02-11T11:05:36;7.37;;;7.07;;
6386;SDS011;3226;42.162;24.756;2023-02-11T11:08:13;7.33;;;7.03;;
6386;SDS011;3226;42.162;24.756;2023-02-11T11:10:44;7.17;;;6.87;;
6386;SDS011;3226;42.162;24.756;2023-02-11T11:13:24;6.60;;;6.30;;
6386;SDS011;3226;42.162;24.756;2023-02-11T11:18:44;7.60;;;7.30;;
6386;SDS011;3226;42.162;24.756;2023-02-11T11:21:17;7.80;;;7.50;;
6386;SDS011;3226;42.162;24.756;2023-02-11T11:23:48;7.37;;;7.07;;
6386;SDS011;3226;42.162;24.756;2023-02-11T11:26:20;6.53;;;6.23;;
6386;SDS011;3226;42.162;24.756;2023-02-11T11:28:50;7.63;;;7.33;;
6386;SDS011;3226;42.162;24.756;2023-02-11T11:31:29;7.33;;;7.03;;
6386;SDS011;3226;42.162;24.756;2023-02-11T11:34:00;8.03;;;7.73;;
6386;SDS011;3226;42.162;24.756;2023-02-11T11:36:40;8.00;;;7.70;;
6386;SDS011;3226;42.162;24.756;2023-02-11T11:39:19;8.83;;;8.43;;
6386;SDS011;3226;42.162;24.756;2023-02-11T11:41:52;7.57;;;7.27;;
6386;SDS011;3226;42.162;24.756;2023-02-11T11:44:24;6.67;;;6.37;;
6386;SDS011;3226;42.162;24.756;2023-02-11T11:47:14;7.57;;;7.27;;
6386;SDS011;3226;42.162;24.756;2023-02-11T11:49:50;7.33;;;7.03;;
6386;SDS011;3226;42.162;24.756;2023-02-11T11:52:34;7.90;;;7.60;;
6386;SDS011;3226;42.162;24.756;2023-02-11T11:55:10;7.63;;;7.33;;
6386;SDS011;3226;42.162;24.756;2023-02-11T11:57:43;7.60;;;7.30;;
6386;SDS011;3226;42.162;24.756;2023-02-11T12:00:16;7.83;;;7.53;;
6386;SDS011;3226;42.162;24.756;2023-02-11T12:05:55;8.20;;;7.90;;
6386;SDS011;3226;42.162;24.756;2023-02-11T12:08:38;7.10;;;6.80;;
6386;SDS011;3226;42.162;24.756;2023-02-11T12:11:16;8.20;;;7.90;;
6386;SDS011;3226;42.162;24.756;2023-02-11T12:13:54;7.73;;;7.43;;
6386;SDS011;3226;42.162;24.756;2023-02-11T12:16:35;7.10;;;6.80;;
6386;SDS011;3226;42.162;24.756;2023-02-11T12:19:21;7.83;;;7.53;;
6386;SDS011;3226;42.162;24.756;2023-02-11T12:22:10;7.83;;;7.53;;
6386;SDS011;3226;42.162;24.756;2023-02-11T12:24:51;7.80;;;7.50;;
6386;SDS011;3226;42.162;24.756;2023-02-11T12:27:31;7.37;;;7.07;;
6386;SDS011;3226;42.162;24.756;2023-02-11T12:30:19;7.90;;;7.60;;
6386;SDS011;3226;42.162;24.756;2023-02-11T12:33:09;7.53;;;7.23;;
6386;SDS011;3226;42.162;24.756;2023-02-11T12:35:51;9.33;;;8.93;;
6386;SDS011;3226;42.162;24.756;2023-02-11T12:38:28;7.53;;;7.23;;
6386;SDS011;3226;42.162;24.756;2023-02-11T12:41:11;7.80;;;7.50;;
6386;SDS011;3226;42.162;24.756;2023-02-11T12:44:12;7.87;;;7.57;;
6386;SDS011;3226;42.162;24.756;2023-02-11T12:46:51;7.60;;;7.30;;
6386;SDS011;3226;42.162;24.756;2023-02-11T12:49:31;7.27;;;6.97;;
6386;SDS011;3226;42.162;24.756;2023-02-11T12:52:16;8.10;;;7.80;;
6386;SDS011;3226;42.162;24.756;2023-02-11T12:54:59;7.57;;;7.27;;
6386;SDS011;3226;42.162;24.756;2023-02-11T12:57:33;8.13;;;7.83;;
6386;SDS011;3226;42.162;24.756;2023-02-11T13:00:06;8.40;;;8.03;;
6386;SDS011;3226;42.162;24.756;2023-02-11T13:02:40;7.43;;;7.13;;
6386;SDS011;3226;42.162;24.756;2023-02-11T13:05:18;7.87;;;7.57;;
6386;SDS011;3226;42.162;24.756;2023-02-11T13:07:55;8.47;;;8.07;;
6386;SDS011;3226;42.162;24.756;2023-02-11T13:10:30;7.47;;;7.17;;
6386;SDS011;3226;42.162;24.756;2023-02-11T13:13:03;7.07;;;6.77;;
6386;SDS011;3226;42.162;24.756;2023-02-11T13:15:44;8.07;;;7.77;;
6386;SDS011;3226;42.162;24.756;2023-02-11T13:18:21;7.43;;;7.13;;
6386;SDS011;3226;42.162;24.756;2023-02-11T13:21:18;8.27;;;7.97;;
6386;SDS011;3226;42.162;24.756;2023-02-11T13:24:12;8.20;;;7.90;;
6386;SDS011;3226;42.162;24.756;2023-02-11T13:26:50;8.00;;;7.70;;
6386;SDS011;3226;42.162;24.756;2023-02-11T13:29:28;7.87;;;7.57;;
6386;SDS011;3226;42.162;24.756;2023-02-11T13:32:08;7.17;;;6.87;;
6386;SDS011;3226;42.162;24.756;2023-02-11T13:34:54;7.53;;;7.23;;
6386;SDS011;3226;42.162;24.756;2023-02-11T13:37:24;7.73;;;7.43;;
6386;SDS011;3226;42.162;24.756;2023-02-11T13:39:56;7.60;;;7.30;;
6386;SDS011;3226;42.162;24.756;2023-02-11T13:42:28;7.83;;;7.53;;
6386;SDS011;3226;42.162;24.756;2023-02-11T13:44:59;7.97;;;7.67;;
6386;SDS011;3226;42.162;24.756;2023-02-11T13:47:28;10.10;;;9.70;;
6386;SDS011;3226;42.162;24.756;2023-02-11T13:49:58;8.10;;;7.80;;
6386;SDS011;3226;42.162;24.756;2023-02-11T13:52:28;7.47;;;7.17;;
6386;SDS011;3226;42.162;24.756;2023-02-11T13:55:02;7.30;;;7.00;;
6386;SDS011;3226;42.162;24.756;2023-02-11T13:57:40;7.67;;;7.37;;
6386;SDS011;3226;42.162;24.756;2023-02-11T14:03:30;7.83;;;7.53;;
6386;SDS011;3226;42.162;24.756;2023-02-11T14:06:19;7.43;;;7.13;;
6386;SDS011;3226;42.162;24.756;2023-02-11T14:12:24;7.33;;;7.03;;
6386;SDS011;3226;42.162;24.756;2023-02-11T14:17:48;7.33;;;7.03;;
6386;SDS011;3226;42.162;24.756;2023-02-11T14:20:38;7.47;;;7.17;;
6386;SDS011;3226;42.162;24.756;2023-02-11T14:23:19;8.00;;;7.70;;
6386;SDS011;3226;42.162;24.756;2023-02-11T14:25:52;8.23;;;7.93;;
6386;SDS011;3226;42.162;24.756;2023-02-11T14:28:42;7.23;;;6.93;;
6386;SDS011;3226;42.162;24.756;2023-02-11T14:31:12;7.40;;;7.10;;
6386;SDS011;3226;42.162;24.756;2023-02-11T14:33:47;7.43;;;7.13;;
6386;SDS011;3226;42.162;24.756;2023-02-11T14:36:38;7.50;;;7.20;;
6386;SDS011;3226;42.162;24.756;2023-02-11T14:39:25;7.70;;;7.40;;
6386;SDS011;3226;42.162;24.756;2023-02-11T14:42:06;7.10;;;6.80;;
6386;SDS011;3226;42.162;24.756;2023-02-11T14:44:44;8.07;;;7.77;;
6386;SDS011;3226;42.162;24.756;2023-02-11T14:47:16;7.27;;;6.97;;
6386;SDS011;3226;42.162;24.756;2023-02-11T14:49:47;8.37;;;8.03;;
6386;SDS011;3226;42.162;24.756;2023-02-11T14:52:20;7.73;;;7.43;;
6386;SDS011;3226;42.162;24.756;2023-02-11T14:54:57;7.77;;;7.47;;
6386;SDS011;3226;42.162;24.756;2023-02-11T14:57:33;9.50;;;8.93;;
6386;SDS011;3226;42.162;24.756;2023-02-11T15:00:04;7.87;;;7.57;;
6386;SDS011;3226;42.162;24.756;2023-02-11T15:02:46;7.40;;;7.10;;
6386;SDS011;3226;42.162;24.756;2023-02-11T15:05:16;7.87;;;7.57;;
6386;SDS011;3226;42.162;24.756;2023-02-11T15:07:48;8.07;;;7.77;;
6386;SDS011;3226;42.162;24.756;2023-02-11T15:10:20;7.63;;;7.33;;
6386;SDS011;3226;42.162;24.756;2023-02-11T15:12:53;6.97;;;6.67;;
6386;SDS011;3226;42.162;24.756;2023-02-11T15:15:22;8.20;;;7.90;;
6386;SDS011;3226;42.162;24.756;2023-02-11T15:17:50;7.33;;;7.03;;
6386;SDS011;3226;42.162;24.756;2023-02-11T15:20:19;7.87;;;7.57;;
6386;SDS011;3226;42.162;24.756;2023-02-11T15:22:54;7.20;;;6.90;;
6386;SDS011;3226;42.162;24.756;2023-02-11T15:25:24;7.88;;;7.57;;
6386;SDS011;3226;42.162;24.756;2023-02-11T15:27:53;8.07;;;7.77;;
6386;SDS011;3226;42.162;24.756;2023-02-11T15:30:24;7.83;;;7.53;;
6386;SDS011;3226;42.162;24.756;2023-02-11T15:32:56;7.53;;;7.23;;
6386;SDS011;3226;42.162;24.756;2023-02-11T15:35:26;7.00;;;6.70;;
6386;SDS011;3226;42.162;24.756;2023-02-11T15:37:58;7.87;;;7.57;;
6386;SDS011;3226;42.162;24.756;2023-02-11T15:40:27;7.47;;;7.17;;
6386;SDS011;3226;42.162;24.756;2023-02-11T15:42:58;7.40;;;7.10;;
6386;SDS011;3226;42.162;24.756;2023-02-11T15:45:28;7.33;;;7.03;;
6386;SDS011;3226;42.162;24.756;2023-02-11T15:48:00;7.13;;;6.83;;
6386;SDS011;3226;42.162;24.756;2023-02-11T15:50:34;7.73;;;7.43;;
6386;SDS011;3226;42.162;24.756;2023-02-11T15:53:15;7.33;;;7.03;;
6386;SDS011;3226;42.162;24.756;2023-02-11T15:55:50;7.43;;;7.13;;
6386;SDS011;3226;42.162;24.756;2023-02-11T15:58:20;7.20;;;6.90;;